CYKZCYXU

Guest
Details From CYKZ - Buttonville Muni
To CYXU - London Intl
Flight Number -
Tags Decoded
Created
Modified
Stats Distance 92 nm / 171 km
Max Altitude 0 ft / 0 m
Waypoints 2
Social Downloads 2
Likes 0
Share VATSIM

Download

Looking for another format? Having issues loading an existing format? Contact us
Advertisement - Login to hide

Notes

Decoded

Route

CYKZ CYXU

ID Type Via Altitude Latitude Longitude Leg Dist Tot Dist Heading (true) Name
O CYKZ APT - 0 ft / 0 m 43.85750˚ -79.37083˚ - 0 nm - BUTTONVILLE MUNI
O CYXU APT - 0 ft / 0 m 43.03806˚ -81.16389˚ 92 nm 92 nm 238° / 237° -

Altitude Profile

Advertisement - Login to hide

CYKZ

Details ICAO CYKZ (YKZ)
Name BUTTONVILLE MUNI
Region Canada
Timezone America/Toronto (UTC-5.0)
Stats Elevation 650 ft / 198 m (AMSL)
Location 43.860485° -79.368821°
Runways 2
Magnetic Variation 10.529° W

METAR

CYKZ 110900Z 35008KT 14SM -SHSN FEW013 SCT020TCU BKN045 M07/M11 A2994 RMK CF1TCU4SC3 CF TR SLP150

Decode

TAF

TAF CYKZ 110538Z 1106/1118 36010KT P6SM BKN030 TEMPO 1106/1109 21/2SM -SHSN OVC020 FM111100 36010KT P6SM BKN030 TEMPO 1111/1115 BKN020 FM111600 12008KT P6SM BKN180 RMK NXT FCST BY 111200Z

Decode

Departure Runways

ID Width Length Bearing (true) Bearing (mag) Surface Threshold Offset Overrun Length
03 80 ft / 24 m 2,707 ft / 825 m 20.53° 31.06° Asphalt 0 ft / 0 m 0 ft / 0 m
15 100 ft / 30 m 4,086 ft / 1,245 m 142.54° 153.07° Asphalt 0 ft / 0 m 0 ft / 0 m
21 80 ft / 24 m 2,707 ft / 825 m 200.53° 211.06° Asphalt 0 ft / 0 m 0 ft / 0 m
33 100 ft / 30 m 4,086 ft / 1,245 m 322.55° 333.08° Asphalt 0 ft / 0 m 0 ft / 0 m

CYXU

Details ICAO CYXU (YXU)
Name LONDON
Region Canada
Timezone America/Toronto (UTC-5.0)
Stats Elevation 912 ft / 278 m (AMSL)
Location 43.036346° -81.150661°
Runways 2
Magnetic Variation 9.089° W

METAR

CYXU 110900Z 29004KT 15SM OVC037 M05/M08 A2995 RMK SC8 SLP158

Decode

TAF

TAF CYXU 110538Z 1106/1206 25013KT 6SM -SN OVC025 TEMPO 1106/1108 11/2SM -SHSN VV008 BECMG 1106/1108 33008KT FM110800 33006KT P6SM BKN025 TEMPO 1108/1116 5SM -SN BKN020 BECMG 1110/1112 VRB03KT FM111800 20008KT 6SM -SN OVC100 TEMPO 1118/1122 21/2SM -SHSN OVC020 FM112200 13008KT 11/2SM -SN OVC015 RMK NXT FCST BY 111200Z

Decode

Destination Runways

ID Width Length Bearing (true) Bearing (mag) Surface Threshold Offset Overrun Length
09 200 ft / 61 m 6,287 ft / 1,916 m 78.99° 88.08° Asphalt 0 ft / 0 m 0 ft / 0 m
15 200 ft / 61 m 8,796 ft / 2,681 m 138.79° 147.88° Asphalt 0 ft / 0 m 0 ft / 0 m
27 200 ft / 61 m 6,287 ft / 1,916 m 259.01° 268.10° Asphalt 0 ft / 0 m 0 ft / 0 m
33 200 ft / 61 m 8,796 ft / 2,681 m 318.81° 327.90° Asphalt 0 ft / 0 m 148 ft / 45 m

Approach Navaids

Runway Type Ident Frequency Range Bearing (true) Bearing (mag) Slope Elevation
15 Localiser IXU 109.50 MHz 18 nm / 33 km 138.88° 147.97° - 906 ft / 276 m (AMSL)
15 Glidescope IXU 109.50 MHz 10 nm / 19 km 138.80° 147.89° 3.00° 906 ft / 276 m (AMSL)

Popular Alternatives